createdAt,value
2018-07-25T00:00:33.282Z,16.50
2018-07-25T00:03:00.649Z,16.15
2018-07-25T00:05:28.146Z,16.15
2018-07-25T00:07:55.598Z,16.52
2018-07-25T00:10:27.581Z,16.48
2018-07-25T00:12:55.072Z,16.73
2018-07-25T00:15:22.501Z,16.55
2018-07-25T00:17:49.928Z,16.95
2018-07-25T00:20:17.409Z,16.65
2018-07-25T00:22:44.871Z,16.05
2018-07-25T00:25:12.369Z,16.42
2018-07-25T00:27:39.892Z,15.98
2018-07-25T00:30:07.419Z,16.37
2018-07-25T00:32:34.879Z,16.25
2018-07-25T00:35:02.373Z,16.67
2018-07-25T00:37:29.931Z,17.00
2018-07-25T00:39:57.427Z,17.35
2018-07-25T00:42:24.877Z,16.42
2018-07-25T00:44:52.369Z,16.75
2018-07-25T00:47:19.897Z,16.75
2018-07-25T00:49:47.310Z,17.20
2018-07-25T00:52:14.720Z,16.95
2018-07-25T00:54:42.162Z,17.40
2018-07-25T00:57:09.535Z,16.60
2018-07-25T00:59:37.062Z,17.60
2018-07-25T01:02:04.501Z,17.10
2018-07-25T01:04:31.946Z,17.25
2018-07-25T01:06:59.411Z,17.20
2018-07-25T01:09:26.902Z,17.27
2018-07-25T01:11:54.336Z,17.82
2018-07-25T01:14:21.832Z,18.05
2018-07-25T01:16:49.334Z,18.12
2018-07-25T01:19:16.765Z,17.60
2018-07-25T01:21:44.343Z,17.90
2018-07-25T01:24:11.777Z,17.60
2018-07-25T01:26:39.150Z,18.00
2018-07-25T01:29:06.628Z,17.37
2018-07-25T01:31:34.164Z,18.10
2018-07-25T01:34:01.618Z,18.55
2018-07-25T01:36:29.011Z,18.40
2018-07-25T01:38:56.504Z,17.90
2018-07-25T01:41:23.896Z,17.90
2018-07-25T01:43:51.323Z,17.77
2018-07-25T01:46:18.782Z,18.05
2018-07-25T01:48:46.280Z,17.42
2018-07-25T01:51:13.751Z,17.90
2018-07-25T01:53:41.260Z,18.12
2018-07-25T01:56:08.843Z,17.40
2018-07-25T01:58:36.213Z,18.40
2018-07-25T02:01:03.677Z,18.02
2018-07-25T02:03:31.179Z,17.90
2018-07-25T02:05:58.630Z,18.23
2018-07-25T02:08:26.109Z,18.70
2018-07-25T02:10:53.604Z,18.80
2018-07-25T02:13:21.033Z,18.35
2018-07-25T02:15:48.527Z,19.37
2018-07-25T02:18:16.076Z,19.17
2018-07-25T02:20:43.521Z,19.17
2018-07-25T02:23:11.007Z,18.80
2018-07-25T02:25:38.487Z,17.87
2018-07-25T02:28:06.033Z,18.63
2018-07-25T02:30:33.527Z,18.30
2018-07-25T02:33:00.971Z,18.27
2018-07-25T02:35:28.403Z,18.55
2018-07-25T02:37:55.908Z,18.77
2018-07-25T02:40:23.876Z,18.20
2018-07-25T02:42:51.450Z,18.02
2018-07-25T02:45:18.982Z,18.87
2018-07-25T02:47:46.555Z,18.30
2018-07-25T02:50:14.071Z,19.05
2018-07-25T02:52:41.540Z,18.17
2018-07-25T02:55:08.979Z,19.10
2018-07-25T02:57:36.398Z,18.90
2018-07-25T03:00:04.948Z,18.77
2018-07-25T03:02:32.386Z,18.73
2018-07-25T03:04:59.856Z,19.10
2018-07-25T03:07:27.273Z,18.93
2018-07-25T03:09:54.789Z,18.77
2018-07-25T03:12:22.232Z,18.87
2018-07-25T03:14:49.754Z,18.57
2018-07-25T03:17:17.175Z,18.70
2018-07-25T03:19:44.633Z,18.80
2018-07-25T03:22:12.076Z,18.83
2018-07-25T03:24:39.594Z,18.90
2018-07-25T03:27:07.249Z,19.17
2018-07-25T03:29:34.791Z,19.50
2018-07-25T03:32:02.277Z,20.10
2018-07-25T03:34:29.726Z,19.80
2018-07-25T03:36:57.258Z,19.73
2018-07-25T03:39:24.664Z,19.82
2018-07-25T03:41:52.065Z,20.27
2018-07-25T03:44:19.596Z,19.57
2018-07-25T03:46:47.064Z,20.60
2018-07-25T03:49:14.547Z,21.02
2018-07-25T03:51:42.123Z,20.68
2018-07-25T03:54:09.602Z,20.30
2018-07-25T03:56:37.035Z,21.15
2018-07-25T03:59:04.438Z,19.77
2018-07-25T04:01:31.853Z,22.42
2018-07-25T04:03:59.418Z,22.17
2018-07-25T04:06:26.876Z,23.30
2018-07-25T04:08:54.342Z,22.17
2018-07-25T04:11:21.793Z,21.65
2018-07-25T04:13:49.234Z,22.30
2018-07-25T04:16:16.792Z,21.48
2018-07-25T04:18:44.300Z,21.30
2018-07-25T04:21:11.787Z,20.80
2018-07-25T04:23:39.158Z,20.75
2018-07-25T04:26:06.625Z,21.27
2018-07-25T04:28:34.114Z,22.13
2018-07-25T04:31:01.660Z,22.42
2018-07-25T04:33:29.082Z,23.12
2018-07-25T04:35:56.762Z,21.48
2018-07-25T04:38:24.264Z,21.93
2018-07-25T04:40:52.595Z,21.40
2018-07-25T04:43:20.028Z,21.07
2018-07-25T04:45:47.591Z,21.83
2018-07-25T04:48:15.105Z,21.05
2018-07-25T04:50:42.511Z,20.25
2018-07-25T04:53:09.981Z,20.40
2018-07-25T04:55:37.407Z,20.92
2018-07-25T04:58:04.883Z,21.10
2018-07-25T05:00:32.416Z,22.22
2018-07-25T05:02:59.908Z,21.42
2018-07-25T05:05:27.557Z,21.95
2018-07-25T05:07:55.101Z,21.10
2018-07-25T05:10:22.693Z,22.17
2018-07-25T05:12:50.100Z,22.02
2018-07-25T05:15:17.646Z,21.37
2018-07-25T05:17:45.040Z,21.68
2018-07-25T05:20:12.419Z,21.52
2018-07-25T05:22:39.980Z,21.40
2018-07-25T05:25:07.539Z,21.33
2018-07-25T05:27:34.968Z,20.92
2018-07-25T05:30:02.580Z,21.45
2018-07-25T05:32:30.102Z,21.35
2018-07-25T05:34:57.565Z,21.02
2018-07-25T05:37:25.144Z,21.57
2018-07-25T05:39:52.655Z,21.43
2018-07-25T05:42:20.068Z,20.77
2018-07-25T05:44:47.532Z,20.65
2018-07-25T05:47:15.008Z,20.47
2018-07-25T05:49:42.527Z,20.17
2018-07-25T05:52:09.996Z,19.97
2018-07-25T05:54:37.445Z,20.10
2018-07-25T05:57:04.835Z,19.60
2018-07-25T05:59:32.277Z,21.02
2018-07-25T06:01:59.803Z,19.73
2018-07-25T06:04:27.373Z,20.08
2018-07-25T06:06:54.766Z,20.77
2018-07-25T06:09:22.251Z,20.32
2018-07-25T06:11:49.732Z,20.70
2018-07-25T06:14:17.390Z,22.42
2018-07-25T06:16:44.877Z,21.20
2018-07-25T06:19:12.285Z,22.13
2018-07-25T06:21:39.711Z,21.93
2018-07-25T06:24:07.184Z,21.93
2018-07-25T06:26:34.632Z,21.15
2018-07-25T06:29:02.237Z,21.40
2018-07-25T06:31:29.783Z,22.02
2018-07-25T06:33:57.263Z,21.57
2018-07-25T06:36:24.747Z,23.45
2018-07-25T06:38:52.077Z,23.77
2018-07-25T06:41:20.174Z,22.85
2018-07-25T06:43:48.065Z,22.93
2018-07-25T06:46:15.483Z,22.82
2018-07-25T06:48:42.895Z,23.38
2018-07-25T06:51:10.338Z,23.27
2018-07-25T06:53:37.794Z,24.80
2018-07-25T06:56:05.303Z,25.72
2018-07-25T06:58:32.763Z,24.92
2018-07-25T07:01:00.191Z,24.23
2018-07-25T07:03:27.712Z,25.35
2018-07-25T07:05:56.043Z,24.35
2018-07-25T07:08:25.198Z,23.75
2018-07-25T07:10:52.686Z,24.92
2018-07-25T07:13:20.246Z,23.98
2018-07-25T07:15:47.890Z,22.87
2018-07-25T07:18:15.442Z,23.52
2018-07-25T07:20:42.856Z,23.25
2018-07-25T07:23:10.292Z,22.85
2018-07-25T07:25:37.737Z,21.75
2018-07-25T07:28:05.837Z,22.93
2018-07-25T07:30:33.582Z,22.37
2018-07-25T07:33:01.154Z,23.20
2018-07-25T07:35:28.721Z,22.32
2018-07-25T07:37:56.265Z,21.90
2018-07-25T07:40:23.984Z,22.53
2018-07-25T07:42:51.917Z,22.15
2018-07-25T07:45:19.590Z,22.13
2018-07-25T07:47:47.396Z,22.82
2018-07-25T07:50:14.957Z,22.37
2018-07-25T07:52:42.636Z,21.77
2018-07-25T07:55:10.349Z,21.82
2018-07-25T07:57:38.126Z,21.30
2018-07-25T08:00:06.610Z,21.10
2018-07-25T08:02:34.267Z,20.45
2018-07-25T08:05:01.932Z,21.00
2018-07-25T08:07:29.419Z,18.53
2018-07-25T08:09:57.143Z,19.07
2018-07-25T08:12:24.623Z,20.10
2018-07-25T08:14:52.296Z,19.70
2018-07-25T08:17:20.170Z,19.55
2018-07-25T08:19:50.097Z,19.73
2018-07-25T08:22:17.775Z,20.17
2018-07-25T08:24:45.419Z,20.08
2018-07-25T08:27:13.046Z,20.02
2018-07-25T08:29:40.766Z,19.20
2018-07-25T08:32:08.404Z,20.57
2018-07-25T08:34:36.008Z,21.05
2018-07-25T08:37:03.539Z,19.60
2018-07-25T08:39:31.422Z,19.73
2018-07-25T08:41:58.968Z,19.12
2018-07-25T08:44:26.584Z,19.05
2018-07-25T08:46:54.508Z,18.67
2018-07-25T08:49:21.874Z,18.65
2018-07-25T08:51:49.709Z,18.57
2018-07-25T08:54:23.121Z,19.52
2018-07-25T08:56:50.695Z,18.67
2018-07-25T08:59:19.030Z,18.48
2018-07-25T09:01:46.648Z,18.32
2018-07-25T09:04:14.135Z,18.60
2018-07-25T09:06:42.392Z,19.05
2018-07-25T09:09:10.885Z,18.80
2018-07-25T09:11:38.903Z,18.92
2018-07-25T09:14:06.380Z,18.35
2018-07-25T09:16:34.162Z,17.87
2018-07-25T09:19:03.535Z,19.37
2018-07-25T09:21:34.284Z,17.65
2018-07-25T09:24:02.804Z,17.70
2018-07-25T09:26:44.499Z,18.57
2018-07-25T09:29:11.926Z,17.40
2018-07-25T09:31:47.832Z,17.57
2018-07-25T09:34:15.565Z,17.67
2018-07-25T09:36:43.106Z,18.10
2018-07-25T09:39:11.360Z,16.85
2018-07-25T09:44:32.220Z,16.73
2018-07-25T09:47:07.116Z,17.30
2018-07-25T09:55:14.150Z,16.87
2018-07-25T10:00:40.213Z,17.12
2018-07-25T10:03:07.688Z,17.30
2018-07-25T10:05:35.133Z,17.37
2018-07-25T10:08:29.884Z,17.55
2018-07-25T10:10:57.510Z,16.93
2018-07-25T10:13:25.124Z,16.00
2018-07-25T10:16:02.070Z,16.90
2018-07-25T10:18:31.729Z,15.03
2018-07-25T10:20:59.271Z,15.60
2018-07-25T10:23:26.914Z,15.80
2018-07-25T10:25:54.489Z,14.68
2018-07-25T10:28:21.909Z,14.38
2018-07-25T10:30:50.444Z,13.45
2018-07-25T10:33:25.396Z,13.43
2018-07-25T10:36:05.769Z,14.43
2018-07-25T10:38:33.529Z,13.30
2018-07-25T10:41:01.052Z,13.65
2018-07-25T10:43:28.545Z,13.15
2018-07-25T10:45:56.048Z,13.68
2018-07-25T10:48:23.524Z,13.08
2018-07-25T10:50:51.090Z,11.47
2018-07-25T10:53:28.136Z,11.65
2018-07-25T10:55:55.756Z,12.00
2018-07-25T10:58:23.255Z,11.15
2018-07-25T11:00:52.134Z,29.87
2018-07-25T11:03:19.824Z,20.77
2018-07-25T11:05:47.215Z,11.83
2018-07-25T11:08:29.851Z,11.65
2018-07-25T11:10:57.840Z,10.58
2018-07-25T11:13:28.955Z,11.05
2018-07-25T11:16:12.561Z,9.70
2018-07-25T11:18:41.808Z,9.98
2018-07-25T11:21:35.333Z,9.63
2018-07-25T11:24:10.306Z,9.83
2018-07-25T11:27:02.628Z,12.18
2018-07-25T11:32:35.173Z,10.05
2018-07-25T11:35:03.708Z,12.98
2018-07-25T11:37:49.127Z,9.80
2018-07-25T11:40:30.760Z,9.55
2018-07-25T11:42:59.059Z,9.15
2018-07-25T11:45:28.100Z,9.18
2018-07-25T11:48:14.890Z,9.00
2018-07-25T11:51:05.790Z,8.98
2018-07-25T11:56:31.742Z,8.83
2018-07-25T11:59:14.478Z,8.73
2018-07-25T12:01:48.489Z,13.98
2018-07-25T12:10:13.211Z,8.45
2018-07-25T12:30:43.350Z,7.90
2018-07-25T12:33:31.802Z,8.10
2018-07-25T12:36:49.369Z,8.50
2018-07-25T12:39:18.216Z,7.80
2018-07-25T12:41:55.236Z,8.48
2018-07-25T12:44:28.611Z,7.58
2018-07-25T12:47:00.275Z,7.63
2018-07-25T12:49:41.680Z,8.90
2018-07-25T12:52:25.638Z,7.80
2018-07-25T13:00:57.050Z,7.83
2018-07-25T13:03:26.150Z,7.40
2018-07-25T13:05:53.845Z,8.00
2018-07-25T13:11:23.972Z,7.53
2018-07-25T13:16:40.489Z,7.62
2018-07-25T13:19:08.132Z,7.57
2018-07-25T13:21:47.856Z,7.70
2018-07-25T13:24:16.230Z,7.92
2018-07-25T13:29:23.451Z,7.50
2018-07-25T13:31:51.352Z,7.42
2018-07-25T13:34:28.397Z,7.65
2018-07-25T13:36:59.397Z,7.70
2018-07-25T13:42:32.342Z,8.28
2018-07-25T13:45:00.053Z,8.40
2018-07-25T13:47:27.582Z,8.20
2018-07-25T13:49:55.056Z,8.90
2018-07-25T13:52:22.526Z,8.10
2018-07-25T13:54:51.823Z,8.50
2018-07-25T13:57:19.430Z,8.13
2018-07-25T14:02:44.209Z,8.20
2018-07-25T14:05:23.614Z,8.40
2018-07-25T14:08:14.890Z,21.95
2018-07-25T14:16:50.745Z,12.82
2018-07-25T14:19:18.423Z,8.10
2018-07-25T14:21:46.180Z,8.25
2018-07-25T14:24:22.733Z,11.50
2018-07-25T14:27:00.561Z,10.53
2018-07-25T14:29:29.336Z,10.18
2018-07-25T14:31:57.032Z,8.43
2018-07-25T14:34:26.986Z,8.45
2018-07-25T14:36:58.321Z,8.53
2018-07-25T14:42:11.044Z,8.75
2018-07-25T14:44:51.877Z,8.43
2018-07-25T14:47:19.590Z,7.90
2018-07-25T14:49:48.610Z,8.05
2018-07-25T14:52:17.704Z,7.35
2018-07-25T14:57:28.759Z,7.85
2018-07-25T14:59:56.816Z,7.60
2018-07-25T15:02:26.810Z,7.28
2018-07-25T15:04:54.622Z,8.03
2018-07-25T15:07:22.344Z,6.70
2018-07-25T15:09:50.178Z,9.98
2018-07-25T15:12:30.037Z,6.72
2018-07-25T15:14:58.215Z,7.17
2018-07-25T15:17:27.800Z,6.92
2018-07-25T15:19:55.643Z,6.35
2018-07-25T15:22:25.094Z,6.60
2018-07-25T15:24:53.265Z,6.60
2018-07-25T15:27:20.919Z,7.28
2018-07-25T15:29:48.635Z,7.10
2018-07-25T15:32:16.080Z,7.40
2018-07-25T15:34:43.896Z,6.90
2018-07-25T15:37:11.547Z,6.57
2018-07-25T15:39:39.137Z,7.00
2018-07-25T15:42:07.595Z,7.37
2018-07-25T15:44:35.638Z,7.55
2018-07-25T15:47:03.972Z,7.42
2018-07-25T15:49:31.531Z,7.05
2018-07-25T15:51:59.061Z,6.92
2018-07-25T15:54:34.078Z,6.37
2018-07-25T15:57:01.642Z,6.65
2018-07-25T15:59:34.948Z,7.03
2018-07-25T16:02:02.602Z,6.40
2018-07-25T16:04:30.115Z,6.50
2018-07-25T16:06:57.660Z,6.40
2018-07-25T16:09:25.490Z,6.78
2018-07-25T16:18:17.872Z,5.40
2018-07-25T16:23:38.011Z,6.25
2018-07-25T16:28:58.478Z,6.42
2018-07-25T16:43:30.804Z,6.65
2018-07-25T16:51:31.412Z,7.25
2018-07-25T16:54:02.214Z,6.60
2018-07-25T16:57:09.368Z,19.57
2018-07-25T17:02:42.157Z,7.07
2018-07-25T17:13:59.400Z,6.67
2018-07-25T17:16:35.073Z,6.95
2018-07-25T17:22:05.105Z,6.47
2018-07-25T17:24:32.914Z,5.97
2018-07-25T17:33:09.184Z,6.50
2018-07-25T17:35:40.028Z,5.75
2018-07-25T17:47:15.403Z,6.45
2018-07-25T17:55:57.012Z,7.65
2018-07-25T18:03:50.848Z,6.92
2018-07-25T18:06:19.027Z,7.03
2018-07-25T18:08:46.519Z,8.95
2018-07-25T18:11:23.264Z,7.75
2018-07-25T18:13:59.086Z,8.03
2018-07-25T18:16:26.880Z,7.47
2018-07-25T18:42:52.473Z,11.25
2018-07-25T18:45:19.948Z,10.00
2018-07-25T18:47:47.566Z,9.80
2018-07-25T18:50:15.037Z,10.00
2018-07-25T18:52:42.591Z,9.98
2018-07-25T18:55:10.193Z,9.23
2018-07-25T18:57:37.916Z,9.43
2018-07-25T19:00:05.600Z,9.50
2018-07-25T19:02:33.078Z,9.25
2018-07-25T19:05:00.676Z,9.28
2018-07-25T19:07:28.398Z,8.90
2018-07-25T19:09:56.026Z,9.30
2018-07-25T19:12:24.028Z,9.25
2018-07-25T19:14:57.199Z,9.18
2018-07-25T19:17:24.710Z,8.60
2018-07-25T19:19:52.251Z,8.70
2018-07-25T19:22:19.704Z,10.03
2018-07-25T19:24:47.379Z,8.93
2018-07-25T19:27:14.822Z,10.10
2018-07-25T19:29:42.326Z,12.03
2018-07-25T19:32:09.857Z,9.10
2018-07-25T19:34:37.333Z,9.20
2018-07-25T19:37:04.868Z,9.55
2018-07-25T19:39:37.385Z,8.60
2018-07-25T19:42:06.098Z,8.75
2018-07-25T19:44:41.389Z,8.90
2018-07-25T19:47:11.922Z,8.85
2018-07-25T19:49:39.518Z,8.57
2018-07-25T19:52:06.880Z,8.90
2018-07-25T19:54:34.598Z,9.25
2018-07-25T19:57:02.003Z,9.30
2018-07-25T19:59:29.609Z,9.93
2018-07-25T20:01:57.093Z,10.50
2018-07-25T20:04:25.612Z,10.15
2018-07-25T20:06:53.210Z,8.85
2018-07-25T20:09:20.669Z,8.83
2018-07-25T20:11:48.354Z,9.63
2018-07-25T20:14:21.365Z,10.00
2018-07-25T20:16:48.929Z,9.90
2018-07-25T20:19:17.630Z,10.03
2018-07-25T20:21:45.453Z,11.53
2018-07-25T20:24:13.104Z,12.00
2018-07-25T20:26:40.670Z,11.03
2018-07-25T20:29:13.113Z,10.23
2018-07-25T20:31:40.715Z,9.80
2018-07-25T20:34:08.256Z,10.03
2018-07-25T20:36:35.785Z,10.13
2018-07-25T20:39:06.073Z,9.55
2018-07-25T20:41:46.153Z,9.70
2018-07-25T20:44:14.488Z,12.13
2018-07-25T20:46:42.068Z,11.70
2018-07-25T20:49:09.746Z,10.93
2018-07-25T20:51:40.107Z,11.60
2018-07-25T20:54:08.759Z,10.45
2018-07-25T20:56:41.896Z,10.85
2018-07-25T20:59:09.390Z,10.70
2018-07-25T21:01:41.332Z,10.68
2018-07-25T21:04:08.827Z,11.78
2018-07-25T21:06:36.345Z,11.20
2018-07-25T21:09:06.216Z,10.88
2018-07-25T21:11:34.509Z,10.40
2018-07-25T21:14:01.986Z,10.10
2018-07-25T21:16:29.420Z,9.85
2018-07-25T21:18:57.021Z,9.93
2018-07-25T21:21:24.656Z,10.03
2018-07-25T21:23:52.147Z,11.35
2018-07-25T21:26:19.659Z,11.20
2018-07-25T21:28:47.190Z,10.87
2018-07-25T21:31:15.603Z,11.43
2018-07-25T21:33:43.234Z,10.93
2018-07-25T21:36:10.791Z,11.08
2018-07-25T21:38:39.287Z,10.72
2018-07-25T21:41:07.077Z,10.50
2018-07-25T21:43:34.692Z,11.12
2018-07-25T21:46:02.479Z,11.00
2018-07-25T21:48:30.090Z,10.70
2018-07-25T21:50:57.778Z,11.33
2018-07-25T21:53:25.431Z,11.00
2018-07-25T21:55:52.985Z,10.63
2018-07-25T21:58:20.611Z,11.22
2018-07-25T22:00:57.269Z,11.05
2018-07-25T22:03:24.784Z,11.00
2018-07-25T22:05:52.477Z,11.35
2018-07-25T22:08:20.252Z,11.22
2018-07-25T22:10:47.946Z,11.30
2018-07-25T22:13:15.897Z,11.12
2018-07-25T22:15:43.929Z,10.77
2018-07-25T22:18:11.813Z,10.68
2018-07-25T22:20:39.803Z,10.55
2018-07-25T22:23:07.347Z,9.98
2018-07-25T22:25:34.848Z,11.40
2018-07-25T22:28:02.408Z,10.90
2018-07-25T22:30:29.864Z,10.60
2018-07-25T22:32:57.312Z,10.23
2018-07-25T22:35:24.866Z,10.95
2018-07-25T22:37:52.457Z,10.82
2018-07-25T22:40:19.919Z,10.78
2018-07-25T22:42:47.462Z,10.65
2018-07-25T22:45:14.988Z,11.05
2018-07-25T22:47:42.541Z,11.45
2018-07-25T22:50:10.046Z,12.03
2018-07-25T22:52:37.599Z,11.90
2018-07-25T22:55:05.375Z,12.73
2018-07-25T22:57:32.920Z,12.60
2018-07-25T23:00:00.396Z,13.40
2018-07-25T23:02:29.317Z,12.25
2018-07-25T23:04:56.780Z,12.63
2018-07-25T23:07:24.153Z,12.10
2018-07-25T23:09:51.634Z,10.82
2018-07-25T23:12:19.190Z,11.65
2018-07-25T23:14:46.802Z,11.35
2018-07-25T23:17:14.308Z,11.20
2018-07-25T23:19:41.831Z,11.38
2018-07-25T23:22:09.387Z,10.53
2018-07-25T23:24:36.847Z,10.18
2018-07-25T23:27:04.347Z,10.30
2018-07-25T23:29:31.928Z,10.10
2018-07-25T23:31:59.407Z,9.40
2018-07-25T23:34:26.899Z,9.28
2018-07-25T23:36:54.421Z,9.65
2018-07-25T23:39:21.980Z,9.48
2018-07-25T23:41:49.587Z,9.35
2018-07-25T23:44:17.056Z,9.63
2018-07-25T23:46:44.519Z,9.15
2018-07-25T23:49:11.968Z,9.78
2018-07-25T23:51:39.490Z,9.83
2018-07-25T23:54:07.055Z,9.90
2018-07-25T23:56:34.652Z,9.90
2018-07-25T23:59:02.109Z,9.00
